EGPB/LSI METAR and TAF weather

Enter ICAO airport designator
Station Type Date Time Source
EGPB METAR 2021/07/26 12:20 UTC NOAA

EGPB 261220Z 05010KT 8000 FEW005 SCT007 BKN016 17/15 Q1009


Station Type Date Time Source
EGPB Decoded METAR 2021/07/26 12:20 UTC NOAA

Sumburgh Cape , United Kingdom (EGPB) 59-53N 001-18W
Jul 26, 2021 - 08:20 AM EDT / 2021.07.26 1220 UTC
Wind: from the NE (050 degrees) at 12 MPH (10 KT):0
Visibility: 4 mile(s):0
Sky conditions: mostly cloudy
Temperature: 62 F (17 C)
Dew Point: 59 F (15 C)
Relative Humidity: 88%
Pressure (altimeter): 29.80 in. Hg (1009 hPa)
ob: EGPB 261220Z 05010KT 8000 FEW005 SCT007 BKN016 17/15 Q1009
cycle: 12

Station Type Date Time Source
EGPB TAF UTC NOAA

Error!

Example: see airport list